Time;durP1;ratioP1;P1;durP2;ratioP2;P2;SDS_P1;SDS_P2;PMS_P1;PMS_P2;Temp;Humidity;BMP_temperature;BMP_pressure;BME280_temperature;BME280_humidity;BME280_pressure;Samples;Min_cycle;Max_cycle;Signal;HPM_P1;HPM_P2
2023/03/25 00:01:16;;;;;;;0.10;0.10;;;16.10;94.10;;;;;;4993708;28;20070;-51
2023/03/25 00:03:45;;;;;;;1.63;0.45;;;16.00;94.10;;;;;;4993686;28;20026;-50
2023/03/25 00:06:12;;;;;;;0.20;0.20;;;16.00;94.20;;;;;;4993719;28;20117;-51
2023/03/25 00:08:38;;;;;;;0.17;0.17;;;16.00;94.20;;;;;;4993597;28;20029;-51
2023/03/25 00:11:05;;;;;;;0.25;0.25;;;16.10;94.00;;;;;;4993588;28;20470;-50
2023/03/25 00:13:32;;;;;;;0.30;0.30;;;16.00;94.00;;;;;;4993497;28;20034;-51
2023/03/25 00:15:59;;;;;;;0.32;0.32;;;16.10;93.90;;;;;;4993582;28;20034;-50
2023/03/25 00:18:28;;;;;;;0.10;0.10;;;16.20;93.80;;;;;;4993543;28;20374;-51
2023/03/25 00:20:55;;;;;;;0.10;0.10;;;16.20;93.60;;;;;;4989812;28;20046;-50
2023/03/25 00:23:21;;;;;;;0.32;0.32;;;16.10;93.60;;;;;;4993530;28;20124;-51
2023/03/25 00:25:48;;;;;;;0.20;0.20;;;16.10;93.30;;;;;;4994106;28;20053;-51
2023/03/25 00:28:15;;;;;;;0.03;0.03;;;16.00;93.30;;;;;;5012205;28;20117;-51
2023/03/25 00:30:42;;;;;;;0.13;0.13;;;16.00;93.10;;;;;;5013145;28;20478;-50
2023/03/25 00:33:12;;;;;;;0.10;0.10;;;15.70;93.60;;;;;;5013161;28;20029;-51
2023/03/25 00:35:43;;;;;;;0.10;0.10;;;15.30;94.00;;;;;;5012983;28;20176;-51
2023/03/25 00:38:12;;;;;;;0.10;0.10;;;15.10;94.40;;;;;;5013181;28;20030;-51
2023/03/25 00:40:38;;;;;;;0.10;0.10;;;15.00;94.50;;;;;;5027187;28;20034;-51
2023/03/25 00:43:05;;;;;;;0.10;0.10;;;15.00;94.50;;;;;;5012804;28;20160;-50
2023/03/25 00:45:31;;;;;;;0.32;0.32;;;15.10;94.30;;;;;;4994519;28;20038;-51
2023/03/25 00:47:57;;;;;;;0.17;0.17;;;15.20;93.80;;;;;;4993648;28;20026;-50
2023/03/25 00:50:25;;;;;;;0.00;0.00;;;15.40;93.50;;;;;;4991277;28;20398;-50
2023/03/25 00:52:52;;;;;;;0.30;0.30;;;15.60;93.30;;;;;;4993209;28;20089;-51
2023/03/25 00:55:18;;;;;;;0.47;0.47;;;15.70;93.20;;;;;;4993109;28;20105;-51
2023/03/25 00:57:44;;;;;;;0.43;0.38;;;15.80;93.00;;;;;;4993235;28;20057;-50
2023/03/25 01:00:13;;;;;;;0.13;0.13;;;15.80;93.00;;;;;;5008064;28;20459;-51
2023/03/25 01:02:38;;;;;;;0.30;0.30;;;15.90;93.00;;;;;;5010968;28;20058;-51
2023/03/25 01:05:05;;;;;;;0.47;0.47;;;15.90;93.10;;;;;;4997005;28;20480;-51
2023/03/25 01:07:31;;;;;;;0.10;0.10;;;15.90;93.30;;;;;;4996707;28;20041;-51
2023/03/25 01:09:58;;;;;;;0.20;0.20;;;15.90;93.30;;;;;;4978542;28;20105;-51
2023/03/25 01:12:25;;;;;;;0.20;0.20;;;15.80;93.20;;;;;;4996437;28;20108;-51
2023/03/25 01:14:51;;;;;;;0.05;0.05;;;15.80;93.10;;;;;;4996749;28;20040;-50
2023/03/25 01:17:16;;;;;;;0.25;0.25;;;15.80;93.10;;;;;;4996352;28;20030;-50
2023/03/25 01:19:42;;;;;;;0.60;0.60;;;15.70;93.00;;;;;;4994232;28;20056;-51
2023/03/25 01:22:08;;;;;;;0.28;0.28;;;15.80;93.10;;;;;;4994061;28;20129;-51
2023/03/25 01:24:34;;;;;;;0.35;0.35;;;15.80;92.90;;;;;;4994178;28;20126;-50
2023/03/25 01:27:00;;;;;;;0.60;0.55;;;15.90;92.60;;;;;;4994073;28;20104;-50
2023/03/25 01:29:26;;;;;;;0.45;0.43;;;15.80;92.60;;;;;;4993970;28;20045;-51
2023/03/25 01:31:52;;;;;;;0.93;0.50;;;15.80;92.70;;;;;;4994195;28;20402;-51
2023/03/25 01:34:18;;;;;;;0.75;0.75;;;15.80;92.70;;;;;;5010089;28;20049;-51
2023/03/25 01:36:45;;;;;;;1.08;0.70;;;15.80;92.60;;;;;;4993916;28;20612;-51
2023/03/25 01:39:12;;;;;;;0.32;0.32;;;15.80;92.50;;;;;;4993555;28;20041;-51
2023/03/25 01:41:38;;;;;;;0.30;0.30;;;15.80;92.50;;;;;;4993811;28;20124;-51
2023/03/25 01:44:05;;;;;;;0.28;0.25;;;15.90;92.30;;;;;;4977646;28;20177;-51
2023/03/25 01:46:31;;;;;;;0.10;0.10;;;15.90;92.70;;;;;;4993565;28;20054;-50
2023/03/25 01:48:59;;;;;;;0.32;0.32;;;15.90;92.40;;;;;;4993773;28;20429;-51
2023/03/25 01:51:31;;;;;;;0.30;0.30;;;15.90;92.70;;;;;;4995675;28;20470;-51
2023/03/25 01:53:56;;;;;;;0.28;0.28;;;15.80;92.70;;;;;;4995770;28;20057;-51
2023/03/25 01:56:29;;;;;;;0.35;0.35;;;15.70;93.30;;;;;;4995687;28;20118;-52
2023/03/25 01:58:56;;;;;;;0.20;0.20;;;15.60;92.90;;;;;;4995866;28;20509;-51
2023/03/25 02:01:22;;;;;;;0.30;0.30;;;15.60;93.00;;;;;;4994502;28;20085;-51
2023/03/25 02:03:51;;;;;;;0.00;0.00;;;15.50;93.50;;;;;;4995564;28;20386;-51
2023/03/25 02:06:27;;;;;;;0.35;0.35;;;15.50;93.30;;;;;;5003826;28;20473;-52
2023/03/25 02:08:55;;;;;;;0.20;0.20;;;15.60;93.30;;;;;;5015322;28;20030;-51
2023/03/25 02:11:24;;;;;;;0.43;0.43;;;15.60;93.10;;;;;;5014936;28;20040;-51
2023/03/25 02:13:50;;;;;;;0.20;0.20;;;15.70;92.90;;;;;;5014970;28;20545;-52
2023/03/25 02:16:20;;;;;;;0.10;0.10;;;15.80;92.90;;;;;;5013129;28;20042;-51
2023/03/25 02:18:55;;;;;;;0.45;0.20;;;15.80;93.00;;;;;;5014981;28;20030;-51
2023/03/25 02:21:45;;;;;;;0.20;0.20;;;15.80;92.80;;;;;;5014551;28;20453;-51
2023/03/25 02:24:21;;;;;;;0.32;0.32;;;15.80;93.00;;;;;;5014632;28;20064;-51
2023/03/25 02:27:32;;;;;;;0.30;0.30;;;15.80;93.00;;;;;;5014855;28;20413;-51
2023/03/25 02:30:26;;;;;;;0.28;0.28;;;15.90;92.60;;;;;;5012514;28;20517;-51
2023/03/25 02:33:10;;;;;;;0.40;0.30;;;15.80;92.30;;;;;;5012472;28;20045;-51
2023/03/25 02:35:57;;;;;;;0.10;0.10;;;15.90;92.00;;;;;;5012378;28;20044;-51
2023/03/25 02:38:39;;;;;;;0.20;0.20;;;15.90;91.80;;;;;;5012579;28;20134;-51
2023/03/25 02:41:39;;;;;;;0.17;0.17;;;15.90;91.90;;;;;;5012311;28;20045;-51
2023/03/25 02:44:19;;;;;;;0.32;0.32;;;15.90;91.80;;;;;;4953836;28;20052;-51
2023/03/25 02:46:50;;;;;;;0.52;0.40;;;16.00;91.90;;;;;;4953827;28;20039;-51
2023/03/25 02:49:47;;;;;;;0.63;0.50;;;16.10;91.80;;;;;;4953908;29;20049;-51
2023/03/25 02:52:19;;;;;;;0.22;0.22;;;16.10;91.50;;;;;;4934599;29;20078;-51
2023/03/25 02:54:48;;;;;;;0.63;0.38;;;16.10;92.10;;;;;;4934495;29;20075;-51
2023/03/25 02:57:18;;;;;;;0.13;0.13;;;16.00;92.50;;;;;;4934312;29;20047;-51
2023/03/25 02:59:46;;;;;;;0.40;0.40;;;15.90;92.50;;;;;;4933959;29;20441;-51
2023/03/25 03:02:13;;;;;;;0.00;0.00;;;15.70;92.80;;;;;;4934529;29;20043;-51
2023/03/25 03:04:54;;;;;;;0.68;0.68;;;15.70;93.40;;;;;;4934513;29;20059;-51
2023/03/25 03:07:33;;;;;;;0.30;0.30;;;15.70;93.90;;;;;;4934124;29;20135;-51
2023/03/25 03:10:41;;;;;;;0.10;0.10;;;15.60;93.90;;;;;;4934579;29;20043;-51
2023/03/25 03:13:25;;;;;;;0.50;0.50;;;15.60;92.90;;;;;;4972626;28;20558;-51
2023/03/25 03:15:59;;;;;;;0.30;0.30;;;15.50;93.80;;;;;;4972564;28;20491;-51
2023/03/25 03:18:36;;;;;;;0.20;0.20;;;15.20;94.30;;;;;;4972757;28;20482;-51
2023/03/25 03:21:05;;;;;;;0.10;0.10;;;15.20;93.30;;;;;;4987559;28;20052;-51
2023/03/25 03:23:38;;;;;;;0.15;0.15;;;15.00;94.30;;;;;;4974352;28;20053;-51
2023/03/25 03:26:10;;;;;;;0.20;0.20;;;15.00;94.50;;;;;;4991864;28;20084;-51
2023/03/25 03:28:45;;;;;;;0.10;0.10;;;;;;;;;;5011887;28;20041;-51
2023/03/25 03:31:49;;;;;;;0.15;0.15;;;14.30;95.40;;;;;;5031326;28;20390;-50
2023/03/25 03:34:27;;;;;;;0.20;0.20;;;14.20;96.10;;;;;;4980027;28;20134;-50
2023/03/25 03:36:56;;;;;;;0.40;0.28;;;14.00;96.60;;;;;;4991837;28;20484;-51
2023/03/25 03:39:33;;;;;;;0.25;0.25;;;13.80;97.20;;;;;;4991850;28;20415;-51
2023/03/25 03:42:10;;;;;;;0.65;0.65;;;13.60;98.10;;;;;;4991853;28;20506;-51
2023/03/25 03:44:40;;;;;;;0.60;0.60;;;13.20;99.60;;;;;;4991807;28;20034;-51
2023/03/25 03:47:20;;;;;;;0.50;0.50;;;13.10;99.90;;;;;;4991711;28;20038;-51
2023/03/25 03:50:08;;;;;;;0.20;0.20;;;;;;;;;;4954793;28;20495;-51
2023/03/25 03:52:39;;;;;;;0.10;0.10;;;13.40;99.90;;;;;;4934029;29;20491;-51
2023/03/25 03:55:19;;;;;;;0.17;0.17;;;13.50;99.90;;;;;;4933915;29;20396;-53
2023/03/25 03:57:54;;;;;;;0.17;0.17;;;13.20;99.90;;;;;;4933596;29;20043;-51
2023/03/25 04:01:02;;;;;;;0.15;0.15;;;12.90;99.90;;;;;;4933794;29;20079;-51
2023/03/25 04:03:37;;;;;;;0.45;0.45;;;12.80;99.90;;;;;;4933867;29;20098;-51
2023/03/25 04:06:19;;;;;;;0.40;0.40;;;13.20;99.90;;;;;;4933639;29;20379;-51
2023/03/25 04:08:59;;;;;;;0.88;0.80;;;13.60;99.90;;;;;;4934489;29;20039;-51
2023/03/25 04:11:58;;;;;;;0.40;0.40;;;13.80;99.90;;;;;;4952839;29;20149;-51
2023/03/25 04:14:24;;;;;;;0.30;0.30;;;14.00;99.90;;;;;;4952727;29;20395;-51
2023/03/25 04:16:51;;;;;;;0.82;0.77;;;14.00;99.90;;;;;;4952561;29;20047;-51
2023/03/25 04:19:18;;;;;;;0.30;0.30;;;14.10;99.90;;;;;;4952787;29;20384;-50
2023/03/25 04:21:46;;;;;;;0.38;0.38;;;14.20;99.90;;;;;;4952804;29;20583;-51
2023/03/25 04:24:15;;;;;;;0.17;0.17;;;14.30;99.90;;;;;;4952536;29;20527;-50
2023/03/25 04:26:42;;;;;;;0.10;0.10;;;14.40;99.90;;;;;;4952725;29;20039;-51
2023/03/25 04:29:08;;;;;;;0.15;0.15;;;14.50;99.90;;;;;;4956685;28;20042;-51
2023/03/25 04:31:36;;;;;;;0.10;0.10;;;14.60;99.50;;;;;;5012989;28;20397;-51
2023/03/25 04:34:03;;;;;;;0.20;0.20;;;14.70;99.00;;;;;;5013507;28;20034;-50
2023/03/25 04:36:36;;;;;;;0.10;0.10;;;14.80;98.90;;;;;;5017301;28;20044;-50
2023/03/25 04:39:02;;;;;;;0.10;0.10;;;14.80;98.80;;;;;;5016658;28;20038;-50
2023/03/25 04:41:28;;;;;;;0.30;0.30;;;14.90;98.30;;;;;;5016731;28;20030;-51
2023/03/25 04:43:54;;;;;;;0.20;0.13;;;15.00;98.50;;;;;;5016372;28;20025;-51
2023/03/25 04:46:20;;;;;;;0.70;0.57;;;14.90;97.90;;;;;;5016499;28;20091;-51
2023/03/25 04:48:46;;;;;;;0.40;0.40;;;14.60;98.40;;;;;;5016580;28;20026;-50
2023/03/25 04:51:14;;;;;;;0.10;0.10;;;14.60;98.60;;;;;;5016457;28;20033;-51
2023/03/25 04:53:40;;;;;;;0.10;0.10;;;14.60;98.70;;;;;;5016774;28;20037;-51
2023/03/25 04:56:11;;;;;;;0.63;0.40;;;14.80;99.10;;;;;;5016497;28;20029;-51
2023/03/25 04:58:39;;;;;;;0.30;0.30;;;15.00;99.30;;;;;;5014687;28;20125;-51
2023/03/25 05:01:05;;;;;;;0.32;0.32;;;15.10;98.80;;;;;;5016757;28;20270;-51
2023/03/25 05:03:32;;;;;;;0.00;0.00;;;15.20;98.80;;;;;;5030940;28;20079;-51
2023/03/25 05:05:59;;;;;;;0.55;0.35;;;15.30;98.70;;;;;;5015972;28;20116;-50
2023/03/25 05:08:25;;;;;;;0.10;0.10;;;;;;;;;;5016137;28;20546;-51
2023/03/25 05:10:51;;;;;;;0.65;0.43;;;15.40;99.90;;;;;;5012841;28;20049;-51
2023/03/25 05:13:17;;;;;;;1.63;0.68;;;15.50;99.90;;;;;;5014104;28;20498;-51
2023/03/25 05:15:43;;;;;;;0.30;0.30;;;15.60;99.90;;;;;;5016238;28;20026;-51
2023/03/25 05:18:11;;;;;;;0.10;0.10;;;15.50;99.90;;;;;;5016172;28;20030;-51
2023/03/25 05:20:39;;;;;;;1.98;0.77;;;15.70;99.90;;;;;;5011982;28;20046;-51
2023/03/25 05:23:10;;;;;;;0.10;0.10;;;15.80;99.90;;;;;;5015844;28;20073;-51
2023/03/25 05:25:40;;;;;;;0.68;0.25;;;15.80;99.90;;;;;;5015886;28;20038;-50
2023/03/25 05:28:08;;;;;;;0.40;0.40;;;15.90;99.90;;;;;;5016070;28;20363;-51
2023/03/25 05:30:40;;;;;;;0.10;0.10;;;15.90;99.90;;;;;;5015766;28;20034;-51
2023/03/25 05:33:09;;;;;;;0.20;0.20;;;15.90;99.90;;;;;;5015932;28;20065;-51
2023/03/25 05:35:35;;;;;;;1.20;1.10;;;;;;;;;;5016007;28;20034;-51
2023/03/25 05:38:01;;;;;;;0.20;0.20;;;;;;;;;;5015669;28;20519;-51
2023/03/25 05:40:27;;;;;;;0.00;0.00;;;;;;;;;;5013697;28;20080;-51
2023/03/25 05:42:54;;;;;;;0.13;0.13;;;;;;;;;;5012760;28;20551;-51
2023/03/25 05:45:21;;;;;;;0.20;0.20;;;;;;;;;;5013592;28;20045;-51
2023/03/25 05:47:47;;;;;;;0.70;0.32;;;;;;;;;;5029297;28;20034;-51
2023/03/25 05:50:14;;;;;;;0.50;0.50;;;15.70;99.90;;;;;;5015361;28;20161;-51
2023/03/25 05:52:43;;;;;;;3.30;0.30;;;15.60;99.90;;;;;;5001875;28;20065;-51
2023/03/25 05:55:18;;;;;;;0.10;0.10;;;15.50;99.90;;;;;;4995635;28;20045;-51
2023/03/25 05:57:43;;;;;;;0.00;0.00;;;15.50;99.90;;;;;;4995714;28;20029;-51
2023/03/25 06:00:11;;;;;;;0.00;0.00;;;15.50;99.90;;;;;;4995682;28;20026;-51
2023/03/25 06:02:38;;;;;;;5.03;2.50;;;15.60;99.90;;;;;;5008065;28;20029;-50
2023/03/25 06:05:12;;;;;;;0.70;0.70;;;15.60;99.90;;;;;;5015029;28;20034;-51
2023/03/25 06:07:41;;;;;;;1.30;1.10;;;15.60;99.90;;;;;;5029135;28;20500;-51
2023/03/25 06:10:11;;;;;;;0.20;0.20;;;15.70;99.90;;;;;;5007746;28;20045;-51
2023/03/25 06:12:38;;;;;;;0.10;0.10;;;15.80;99.90;;;;;;4980289;28;20445;-50
2023/03/25 06:15:07;;;;;;;0.20;0.20;;;15.70;99.90;;;;;;5004696;28;20057;-50
2023/03/25 06:17:33;;;;;;;0.08;0.08;;;15.50;99.90;;;;;;5003739;28;20489;-51
2023/03/25 06:20:00;;;;;;;0.10;0.10;;;15.30;99.90;;;;;;5005067;28;20485;-50
2023/03/25 06:22:26;;;;;;;0.35;0.35;;;15.40;99.90;;;;;;5004445;28;20422;-50
2023/03/25 06:24:52;;;;;;;0.20;0.20;;;15.40;99.90;;;;;;5003634;28;20083;-51
2023/03/25 06:27:18;;;;;;;0.32;0.30;;;15.10;99.90;;;;;;4995406;28;20462;-51
2023/03/25 06:29:45;;;;;;;0.65;0.45;;;15.00;99.90;;;;;;4995065;28;20105;-51
2023/03/25 06:32:13;;;;;;;0.17;0.17;;;15.20;99.90;;;;;;4997518;28;20437;-51
2023/03/25 06:34:41;;;;;;;0.20;0.20;;;15.30;99.90;;;;;;5004586;28;20485;-51
2023/03/25 06:37:08;;;;;;;0.32;0.32;;;15.10;99.90;;;;;;5002568;28;20033;-51
2023/03/25 06:39:36;;;;;;;0.20;0.20;;;15.00;99.90;;;;;;5018420;28;20113;-51
2023/03/25 06:42:04;;;;;;;0.13;0.13;;;15.00;99.90;;;;;;5003528;28;20418;-50
2023/03/25 06:44:30;;;;;;;0.20;0.20;;;15.00;99.90;;;;;;5003185;28;20474;-52
2023/03/25 06:46:56;;;;;;;0.20;0.20;;;15.20;99.90;;;;;;5001689;28;20031;-52
2023/03/25 06:49:22;;;;;;;0.05;0.05;;;15.20;99.90;;;;;;4994739;28;20026;-51
2023/03/25 06:51:48;;;;;;;1.27;0.85;;;15.10;99.90;;;;;;4992670;28;20624;-50
2023/03/25 06:54:14;;;;;;;0.38;0.38;;;15.30;99.90;;;;;;5009178;28;20038;-51
2023/03/25 06:56:40;;;;;;;0.50;0.50;;;15.50;99.90;;;;;;4999328;28;20050;-51
2023/03/25 06:59:05;;;;;;;0.30;0.30;;;15.70;99.90;;;;;;4997031;28;20062;-52
2023/03/25 07:01:31;;;;;;;0.30;0.30;;;15.90;99.90;;;;;;5009762;28;20041;-51
2023/03/25 07:03:57;;;;;;;1.35;0.77;;;16.30;99.90;;;;;;5041613;28;20041;-51
2023/03/25 07:06:23;;;;;;;0.30;0.30;;;16.60;99.90;;;;;;4994799;28;20157;-51
2023/03/25 07:08:49;;;;;;;0.73;0.68;;;17.00;99.90;;;;;;4998720;28;20058;-51
2023/03/25 07:11:17;;;;;;;0.82;0.82;;;;;;;;;;5011658;28;20030;-51
2023/03/25 07:13:43;;;;;;;0.20;0.20;;;17.60;99.90;;;;;;4997923;28;20046;-51
2023/03/25 07:16:10;;;;;;;0.28;0.28;;;17.80;99.90;;;;;;4992340;28;20042;-48
2023/03/25 07:18:36;;;;;;;0.47;0.25;;;17.60;99.90;;;;;;4997039;28;20076;-51
2023/03/25 07:21:02;;;;;;;0.10;0.10;;;17.80;99.90;;;;;;4996980;28;20057;-51
2023/03/25 07:23:27;;;;;;;0.38;0.38;;;17.50;99.90;;;;;;5000954;28;20050;-52
2023/03/25 07:25:55;;;;;;;0.10;0.10;;;17.40;99.90;;;;;;5006729;28;20100;-51
2023/03/25 07:28:22;;;;;;;0.17;0.17;;;17.30;99.90;;;;;;4999210;28;20039;-51
2023/03/25 07:30:49;;;;;;;0.40;0.40;;;17.30;99.90;;;;;;5001771;28;20056;-51
2023/03/25 07:33:15;;;;;;;0.45;0.45;;;17.20;99.90;;;;;;5027663;28;20053;-51
2023/03/25 07:35:41;;;;;;;0.00;0.00;;;17.10;99.90;;;;;;5024086;28;20037;-50
2023/03/25 07:38:08;;;;;;;0.47;0.47;;;16.90;99.90;;;;;;5030545;28;20038;-50
2023/03/25 07:40:34;;;;;;;0.65;0.20;;;16.70;99.90;;;;;;5030745;28;20071;-51
2023/03/25 07:43:00;;;;;;;0.10;0.10;;;16.50;99.90;;;;;;5047570;28;20496;-51
2023/03/25 07:45:25;;;;;;;0.90;0.35;;;16.60;99.90;;;;;;5051182;28;20108;-50
2023/03/25 07:47:52;;;;;;;0.30;0.30;;;16.70;99.90;;;;;;5050788;28;20173;-51
2023/03/25 07:50:19;;;;;;;0.15;0.15;;;16.80;99.90;;;;;;5034469;28;20061;-50
2023/03/25 07:52:46;;;;;;;0.10;0.10;;;16.70;99.90;;;;;;5047828;28;20110;-51
2023/03/25 07:55:12;;;;;;;0.10;0.10;;;16.80;99.90;;;;;;5050693;28;20025;-51
2023/03/25 07:57:40;;;;;;;0.03;0.03;;;16.90;99.90;;;;;;5050405;28;20021;-51
2023/03/25 08:00:26;;;;;;;0.10;0.10;;;17.00;99.90;;;;;;5050801;28;20476;-50
2023/03/25 08:02:52;;;;;;;0.40;0.40;;;17.20;99.90;;;;;;5030847;28;20076;-51
2023/03/25 08:05:20;;;;;;;0.10;0.10;;;16.90;99.90;;;;;;4995732;28;20159;-51
2023/03/25 08:07:50;;;;;;;0.73;0.73;;;16.60;99.90;;;;;;5010845;28;20468;-51
2023/03/25 08:10:16;;;;;;;0.10;0.10;;;16.50;99.90;;;;;;4976828;28;20113;-50
2023/03/25 08:12:43;;;;;;;0.10;0.10;;;16.70;99.90;;;;;;4995439;28;20586;-51
2023/03/25 08:15:10;;;;;;;0.10;0.10;;;16.70;99.90;;;;;;4995483;28;20104;-51
2023/03/25 08:17:37;;;;;;;0.10;0.10;;;16.80;99.90;;;;;;4995279;28;20042;-50
2023/03/25 08:20:04;;;;;;;0.10;0.10;;;16.70;99.90;;;;;;4995309;28;20082;-50
2023/03/25 08:22:31;;;;;;;0.30;0.30;;;16.60;99.90;;;;;;4962723;28;20154;-51
2023/03/25 08:24:57;;;;;;;0.20;0.20;;;16.50;99.90;;;;;;4995155;28;20042;-51
2023/03/25 08:27:23;;;;;;;0.10;0.10;;;16.50;99.90;;;;;;4995274;28;20049;-51
2023/03/25 08:29:53;;;;;;;0.65;0.65;;;16.30;99.90;;;;;;4995132;28;20065;-50
2023/03/25 08:32:23;;;;;;;0.00;0.00;;;16.20;99.90;;;;;;4994885;28;20046;-51
2023/03/25 08:34:49;;;;;;;0.10;0.10;;;16.10;99.90;;;;;;5012559;28;20073;-50
2023/03/25 08:37:15;;;;;;;0.20;0.20;;;16.30;99.90;;;;;;5014703;28;20053;-51
2023/03/25 08:39:44;;;;;;;0.20;0.20;;;16.50;99.90;;;;;;5014709;28;20041;-51
2023/03/25 08:42:11;;;;;;;0.10;0.10;;;16.60;99.90;;;;;;4998321;28;20046;-51
2023/03/25 08:44:38;;;;;;;0.20;0.20;;;16.60;99.90;;;;;;5027800;28;20050;-51
2023/03/25 08:47:04;;;;;;;0.10;0.10;;;16.60;99.90;;;;;;4996766;28;20050;-51
2023/03/25 08:49:30;;;;;;;0.15;0.15;;;16.60;99.90;;;;;;5027742;28;20053;-51
2023/03/25 08:51:57;;;;;;;0.10;0.10;;;16.90;99.90;;;;;;4996891;28;20034;-50
2023/03/25 08:54:24;;;;;;;0.10;0.10;;;17.40;99.90;;;;;;4997010;28;20070;-51
2023/03/25 08:56:50;;;;;;;0.20;0.20;;;17.80;99.90;;;;;;4996878;28;20030;-50
2023/03/25 08:59:17;;;;;;;0.10;0.10;;;18.20;99.90;;;;;;4997047;28;20034;-50
2023/03/25 09:01:43;;;;;;;0.03;0.03;;;17.70;99.90;;;;;;5027444;28;20053;-49
2023/03/25 09:04:10;;;;;;;0.25;0.25;;;17.30;99.90;;;;;;5007506;28;20026;-51
2023/03/25 09:06:36;;;;;;;0.25;0.25;;;17.60;99.90;;;;;;5007529;28;20034;-53
2023/03/25 09:09:04;;;;;;;0.10;0.10;;;17.80;99.90;;;;;;5009612;28;20023;-53
2023/03/25 09:11:31;;;;;;;0.10;0.10;;;17.60;99.90;;;;;;5004326;28;20038;-50
2023/03/25 09:13:56;;;;;;;0.10;0.10;;;17.40;99.90;;;;;;5015500;28;20409;-50
2023/03/25 09:16:22;;;;;;;0.30;0.30;;;17.40;99.90;;;;;;5016193;28;20049;-50
2023/03/25 09:18:48;;;;;;;0.10;0.10;;;17.40;99.90;;;;;;5015781;28;20030;-50
2023/03/25 09:21:14;;;;;;;0.20;0.20;;;17.50;99.90;;;;;;5014651;28;20033;-51
2023/03/25 09:23:40;;;;;;;0.10;0.10;;;17.60;99.90;;;;;;5003991;28;20498;-51
2023/03/25 09:26:06;;;;;;;0.32;0.32;;;17.90;99.90;;;;;;4996488;28;20043;-50
2023/03/25 09:28:32;;;;;;;0.10;0.10;;;18.50;99.90;;;;;;4996162;28;20367;-50
2023/03/25 09:30:58;;;;;;;0.10;0.10;;;;;;;;;;4996218;28;20042;-50
2023/03/25 09:33:26;;;;;;;0.10;0.10;;;19.40;99.90;;;;;;5005347;28;20389;-50
2023/03/25 09:35:51;;;;;;;0.10;0.10;;;19.20;99.90;;;;;;5006310;28;20038;-49
2023/03/25 09:38:17;;;;;;;0.10;0.10;;;19.70;99.90;;;;;;5001452;28;20037;-50
2023/03/25 09:40:44;;;;;;;0.20;0.20;;;19.80;99.90;;;;;;5005364;28;20482;-51
2023/03/25 09:43:24;;;;;;;0.70;0.32;;;19.40;99.90;;;;;;5011892;28;20069;-52
2023/03/25 09:45:51;;;;;;;0.15;0.15;;;18.90;99.90;;;;;;5005330;28;20034;-51
2023/03/25 09:48:35;;;;;;;0.20;0.20;;;19.10;99.90;;;;;;5004368;28;20049;-52
2023/03/25 09:51:18;;;;;;;0.20;0.20;;;;;;;;;;5006305;28;20034;-49
2023/03/25 09:53:47;;;;;;;0.00;0.00;;;;;;;;;;5001078;28;20486;-52
2023/03/25 09:56:17;;;;;;;0.22;0.22;;;19.90;99.90;;;;;;5006547;28;20076;-50
2023/03/25 09:58:51;;;;;;;0.20;0.20;;;20.80;99.90;;;;;;5005538;28;20406;-52
2023/03/25 10:01:17;;;;;;;0.35;0.35;;;;;;;;;;4999756;28;20042;-50
2023/03/25 10:04:01;;;;;;;0.10;0.10;;;;;;;;;;5005333;28;20026;-50
2023/03/25 10:06:29;;;;;;;0.20;0.20;;;;;;;;;;4999399;28;20552;-51
2023/03/25 10:09:14;;;;;;;0.10;0.10;;;;;;;;;;5004100;28;20027;-51
2023/03/25 10:11:52;;;;;;;0.13;0.13;;;21.00;99.90;;;;;;5000727;28;20053;-50
2023/03/25 10:14:26;;;;;;;0.10;0.10;;;20.80;99.90;;;;;;4996882;28;20066;-50
2023/03/25 10:17:10;;;;;;;0.00;0.00;;;20.50;99.90;;;;;;4994403;28;20037;-51
2023/03/25 10:20:16;;;;;;;0.30;0.30;;;20.40;99.90;;;;;;4994134;28;20117;-51
2023/03/25 10:23:24;;;;;;;0.05;0.05;;;20.40;99.90;;;;;;5003114;28;20100;-51
2023/03/25 10:26:02;;;;;;;0.05;0.05;;;20.20;99.90;;;;;;5013706;28;20128;-50
2023/03/25 10:28:35;;;;;;;0.00;0.00;;;19.50;99.90;;;;;;5013726;28;20481;-51
2023/03/25 10:31:03;;;;;;;0.10;0.10;;;19.20;99.90;;;;;;5013683;28;20096;-52
2023/03/25 10:33:42;;;;;;;0.10;0.10;;;19.00;99.90;;;;;;4989146;28;20401;-50
2023/03/25 10:36:16;;;;;;;0.20;0.20;;;19.20;99.90;;;;;;5010086;28;20169;-50
2023/03/25 10:38:45;;;;;;;0.00;0.00;;;18.90;99.90;;;;;;5004104;28;20111;-50
2023/03/25 10:41:36;;;;;;;0.00;0.00;;;18.80;99.90;;;;;;5000212;28;20026;-50
2023/03/25 10:44:09;;;;;;;0.00;0.00;;;18.90;99.90;;;;;;5001976;28;20087;-50
2023/03/25 10:46:47;;;;;;;0.00;0.00;;;19.00;99.90;;;;;;4994616;28;20282;-51
2023/03/25 10:49:17;;;;;;;0.00;0.00;;;18.60;99.90;;;;;;4993966;28;20034;-50
2023/03/25 10:51:44;;;;;;;0.00;0.00;;;18.70;99.90;;;;;;4977425;28;20038;-51
2023/03/25 10:54:12;;;;;;;0.00;0.00;;;18.90;99.90;;;;;;5014970;28;20034;-52
2023/03/25 10:56:54;;;;;;;0.10;0.10;;;19.10;99.90;;;;;;5002805;28;20034;-50
2023/03/25 10:59:42;;;;;;;0.00;0.00;;;18.90;99.90;;;;;;5002134;28;20030;-51
2023/03/25 11:02:20;;;;;;;0.10;0.10;;;19.00;99.90;;;;;;4989515;28;20040;-51
2023/03/25 11:04:49;;;;;;;0.03;0.03;;;19.00;99.90;;;;;;5001676;28;20030;-50
2023/03/25 11:07:40;;;;;;;0.10;0.10;;;19.20;99.90;;;;;;5006916;28;20049;-50
2023/03/25 11:10:21;;;;;;;0.20;0.20;;;19.20;99.90;;;;;;4994120;28;20044;-50
2023/03/25 11:12:52;;;;;;;0.00;0.00;;;19.50;99.90;;;;;;4999751;28;20045;-51
2023/03/25 11:15:20;;;;;;;0.05;0.05;;;19.20;99.90;;;;;;5001590;28;20056;-50
2023/03/25 11:17:53;;;;;;;0.10;0.10;;;19.20;99.90;;;;;;5000945;28;20038;-50
2023/03/25 11:20:21;;;;;;;0.00;0.00;;;;;;;;;;4992979;28;20121;-51
2023/03/25 11:22:53;;;;;;;0.00;0.00;;;19.20;99.90;;;;;;4992718;28;20058;-51
2023/03/25 11:25:28;;;;;;;0.00;0.00;;;18.90;99.90;;;;;;4993095;28;20037;-51
2023/03/25 11:27:57;;;;;;;0.00;0.00;;;18.70;99.90;;;;;;4993186;28;20105;-51
2023/03/25 11:30:25;;;;;;;0.35;0.35;;;18.90;99.90;;;;;;4974335;28;20041;-51
2023/03/25 11:33:02;;;;;;;0.00;0.00;;;18.80;99.90;;;;;;4992821;28;20035;-51
2023/03/25 11:35:30;;;;;;;0.00;0.00;;;18.70;99.90;;;;;;4992850;28;20022;-51
2023/03/25 11:37:58;;;;;;;0.00;0.00;;;18.70;99.90;;;;;;4993061;28;20643;-51
2023/03/25 11:40:26;;;;;;;0.10;0.10;;;18.70;99.90;;;;;;5006062;28;20103;-51
2023/03/25 11:42:56;;;;;;;0.00;0.00;;;18.90;99.90;;;;;;5037775;28;20045;-50
2023/03/25 11:45:30;;;;;;;0.00;0.00;;;19.10;99.90;;;;;;5000659;28;20120;-51
2023/03/25 11:48:08;;;;;;;0.00;0.00;;;19.10;99.90;;;;;;5017261;28;20366;-51
2023/03/25 11:50:34;;;;;;;0.00;0.00;;;19.10;99.90;;;;;;4990333;28;20460;-51
2023/03/25 11:53:03;;;;;;;0.00;0.00;;;19.30;99.90;;;;;;5009517;28;20038;-50
2023/03/25 11:55:48;;;;;;;0.00;0.00;;;19.40;99.90;;;;;;5009391;28;20038;-51
2023/03/25 11:58:20;;;;;;;0.10;0.10;;;19.40;99.90;;;;;;5007624;28;20034;-51
2023/03/25 12:00:52;;;;;;;0.00;0.00;;;19.40;99.90;;;;;;5009851;28;20038;-51
2023/03/25 12:03:25;;;;;;;0.00;0.00;;;19.10;99.90;;;;;;5009330;28;20504;-50
2023/03/25 12:06:03;;;;;;;0.00;0.00;;;19.30;99.90;;;;;;5009682;28;20441;-50
2023/03/25 12:08:42;;;;;;;0.00;0.00;;;19.40;99.90;;;;;;4993469;28;20513;-51
2023/03/25 12:11:17;;;;;;;0.63;0.20;;;19.20;99.90;;;;;;5009857;28;20044;-50
2023/03/25 12:14:00;;;;;;;0.10;0.10;;;19.20;99.90;;;;;;4993175;28;20092;-50
2023/03/25 12:16:44;;;;;;;0.10;0.10;;;19.10;99.90;;;;;;5009895;28;20057;-51
2023/03/25 12:19:12;;;;;;;0.00;0.00;;;19.20;99.90;;;;;;5009629;28;20034;-51
2023/03/25 12:21:43;;;;;;;0.10;0.10;;;19.20;99.90;;;;;;5011018;28;20068;-50
2023/03/25 12:24:33;;;;;;;0.00;0.00;;;19.10;99.90;;;;;;5009851;28;20050;-50
2023/03/25 12:27:17;;;;;;;0.20;0.20;;;18.80;99.90;;;;;;5009772;28;20508;-50
2023/03/25 12:30:20;;;;;;;0.00;0.00;;;18.70;99.90;;;;;;4998333;28;20021;-50
2023/03/25 12:32:55;;;;;;;0.00;0.00;;;;;;;;;;5012881;28;20021;-50
2023/03/25 12:35:24;;;;;;;0.00;0.00;;;;;;;;;;5013003;28;20050;-50
2023/03/25 12:38:15;;;;;;;0.00;0.00;;;18.30;99.90;;;;;;5013081;28;20061;-51
2023/03/25 12:40:58;;;;;;;0.00;0.00;;;18.00;99.90;;;;;;5013232;28;20026;-50
2023/03/25 12:43:42;;;;;;;0.00;0.00;;;18.10;99.90;;;;;;5013172;28;20030;-51
2023/03/25 12:46:14;;;;;;;0.00;0.00;;;18.10;99.90;;;;;;5012992;28;20037;-49
2023/03/25 12:48:49;;;;;;;0.10;0.10;;;18.10;99.90;;;;;;5005217;28;20027;-50
2023/03/25 12:51:40;;;;;;;0.00;0.00;;;18.10;99.90;;;;;;4993728;28;20100;-51
2023/03/25 12:54:29;;;;;;;0.25;0.25;;;18.00;99.90;;;;;;4993632;28;20106;-51
2023/03/25 12:57:04;;;;;;;0.03;0.03;;;18.20;99.90;;;;;;4996118;28;20038;-49
2023/03/25 12:59:52;;;;;;;0.10;0.10;;;18.30;99.90;;;;;;4996983;28;20027;-52
2023/03/25 13:02:27;;;;;;;1.60;1.50;;;18.40;99.90;;;;;;4982828;28;20370;-50
2023/03/25 13:05:14;;;;;;;0.10;0.10;;;18.70;99.90;;;;;;5014335;28;20555;-49
2023/03/25 13:07:48;;;;;;;0.10;0.10;;;18.80;99.90;;;;;;5016426;28;20033;-49
2023/03/25 13:10:19;;;;;;;0.00;0.00;;;18.80;99.90;;;;;;5015778;28;20068;-51
2023/03/25 13:12:52;;;;;;;0.10;0.10;;;19.00;99.90;;;;;;5016144;28;20032;-49
2023/03/25 13:15:28;;;;;;;0.20;0.20;;;19.10;99.90;;;;;;5016236;28;20036;-50